Charleston Air Force Base-International Airport
KCHS : now visible

Airfield :











YOU CAN JOIN US ON...

 
LOGIN :

Register | Disclaimer

   EN    FR    IT 

 









Legend :    VFR   Marginal VFR   IFR   Intensive IFR   Very Intensive IFR
Visi :
Ceiling :
>= 8 km
>= 3000ft
5 to 8 km
1000 to 3000 ft
1500m to 5 km
500 to 1000 ft
800 to 1500m
200 to 500 ft
< 800m
< 200 ft
Symbols :   Thunderstorms  Fog  Heavy snow  Heavy precipitations  Wind > 20 kt







- Airport Elevation : 46 ft
- IATA code : CHS


KCHS - Charleston Air Force Base-International

CURRENT METAR :
  • 201256Z 22007KT 10SM SCT015 26/22 A3006 RMK AO2 SLP177 T02560217

EXPIRED METARs :
  • 201156Z 20004KT 10SM FEW020 23/21 A3005 RMK AO2 SLP175 T02330211 10233 20194 53003
  • 201056Z 19004KT 10SM SCT018 SCT032 22/21 A3005 RMK AO2 SLP174 T02170206
  • 200956Z 00000KT 10SM FEW060 21/19 A3004 RMK AO2 SLP170 T02110194

TAF KCHS
Valid from the 20 at 12:00 until the 21 at 12:00 UTC


201132Z 2012/2112 20007KT P6SM SCT025
FM201800 19011G16KT P6SM SCT040
FM210030 19006KT P6SM SKC
KZJX FIR / North America



MET'MAP, your aeronautical weather chart ! - Copyright ORBIFLY December 2007 - Disclaimer

ORBIFLY MET'MAP TEAM :

Programming & Development : Alexandra Zaïnal
Concept & Development : Baudouin d'Aumeries
Co-Development & Prog : Marc-Olivier Méhu
Technical & hardware support : Manuel Goepfert

Contact : metmap@orbifly.com




SOURCES & CREDITS :

   NOAA       Earth
Advisory